sensor_id;sensor_type;location;lat;lon;timestamp;pressure;altitude;pressure_sealevel;temperature;humidity
66273;BME280;58450;52.150;4.466;2023-09-08T00:00:49;101648.19;;;22.34;100.00
66273;BME280;58450;52.150;4.466;2023-09-08T00:03:17;101656.75;;;22.38;100.00
66273;BME280;58450;52.150;4.466;2023-09-08T00:05:44;101655.25;;;22.30;100.00
66273;BME280;58450;52.150;4.466;2023-09-08T00:08:12;101648.00;;;22.24;100.00
66273;BME280;58450;52.150;4.466;2023-09-08T00:10:39;101647.84;;;22.31;100.00
66273;BME280;58450;52.150;4.466;2023-09-08T00:13:08;101649.09;;;22.23;100.00
66273;BME280;58450;52.150;4.466;2023-09-08T00:15:36;101650.88;;;22.17;100.00
66273;BME280;58450;52.150;4.466;2023-09-08T00:18:04;101652.81;;;22.17;100.00
66273;BME280;58450;52.150;4.466;2023-09-08T00:20:32;101647.81;;;22.13;100.00
66273;BME280;58450;52.150;4.466;2023-09-08T00:22:59;101660.19;;;22.16;100.00
66273;BME280;58450;52.150;4.466;2023-09-08T00:25:27;101657.34;;;22.11;100.00
66273;BME280;58450;52.150;4.466;2023-09-08T00:27:54;101650.47;;;22.08;100.00
66273;BME280;58450;52.150;4.466;2023-09-08T00:30:23;101655.84;;;22.03;100.00
66273;BME280;58450;52.150;4.466;2023-09-08T00:32:51;101649.28;;;22.04;100.00
66273;BME280;58450;52.150;4.466;2023-09-08T00:35:18;101656.09;;;22.02;100.00
66273;BME280;58450;52.150;4.466;2023-09-08T00:37:46;101654.69;;;21.99;100.00
66273;BME280;58450;52.150;4.466;2023-09-08T00:40:13;101656.72;;;21.92;100.00
66273;BME280;58450;52.150;4.466;2023-09-08T00:42:41;101649.56;;;21.91;100.00
66273;BME280;58450;52.150;4.466;2023-09-08T00:45:09;101660.69;;;21.84;100.00
66273;BME280;58450;52.150;4.466;2023-09-08T00:47:38;101650.13;;;21.76;100.00
66273;BME280;58450;52.150;4.466;2023-09-08T00:50:07;101655.94;;;21.79;100.00
66273;BME280;58450;52.150;4.466;2023-09-08T00:52:35;101659.63;;;21.73;100.00
66273;BME280;58450;52.150;4.466;2023-09-08T00:55:03;101648.44;;;21.75;100.00
66273;BME280;58450;52.150;4.466;2023-09-08T00:57:32;101656.66;;;21.75;100.00
66273;BME280;58450;52.150;4.466;2023-09-08T01:00:00;101652.50;;;21.72;100.00
66273;BME280;58450;52.150;4.466;2023-09-08T01:02:29;101653.22;;;21.67;100.00
66273;BME280;58450;52.150;4.466;2023-09-08T01:04:59;101651.91;;;21.70;100.00
66273;BME280;58450;52.150;4.466;2023-09-08T01:07:30;101648.25;;;21.64;100.00
66273;BME280;58450;52.150;4.466;2023-09-08T01:09:59;101651.78;;;21.65;100.00
66273;BME280;58450;52.150;4.466;2023-09-08T01:12:30;101649.66;;;21.55;100.00
66273;BME280;58450;52.150;4.466;2023-09-08T01:14:57;101657.88;;;21.55;100.00
66273;BME280;58450;52.150;4.466;2023-09-08T01:17:25;101647.06;;;21.48;100.00
66273;BME280;58450;52.150;4.466;2023-09-08T01:19:55;101659.31;;;21.46;100.00
66273;BME280;58450;52.150;4.466;2023-09-08T01:22:48;101657.78;;;21.38;100.00
66273;BME280;58450;52.150;4.466;2023-09-08T01:25:30;101651.13;;;21.34;100.00
66273;BME280;58450;52.150;4.466;2023-09-08T01:28:00;101652.91;;;21.28;100.00
66273;BME280;58450;52.150;4.466;2023-09-08T01:30:30;101654.34;;;21.31;100.00
66273;BME280;58450;52.150;4.466;2023-09-08T01:33:00;101647.19;;;21.30;100.00
66273;BME280;58450;52.150;4.466;2023-09-08T01:35:28;101639.59;;;21.32;100.00
66273;BME280;58450;52.150;4.466;2023-09-08T01:37:56;101641.84;;;21.23;100.00
66273;BME280;58450;52.150;4.466;2023-09-08T01:40:24;101638.16;;;21.17;100.00
66273;BME280;58450;52.150;4.466;2023-09-08T01:42:53;101637.22;;;21.11;100.00
66273;BME280;58450;52.150;4.466;2023-09-08T01:45:21;101642.94;;;21.10;100.00
66273;BME280;58450;52.150;4.466;2023-09-08T01:47:48;101643.19;;;21.08;100.00
66273;BME280;58450;52.150;4.466;2023-09-08T01:50:16;101633.06;;;21.09;100.00
66273;BME280;58450;52.150;4.466;2023-09-08T01:52:47;101638.41;;;21.04;100.00
66273;BME280;58450;52.150;4.466;2023-09-08T01:55:15;101636.13;;;21.01;100.00
66273;BME280;58450;52.150;4.466;2023-09-08T01:57:43;101640.09;;;20.93;100.00
66273;BME280;58450;52.150;4.466;2023-09-08T02:00:14;101639.00;;;20.94;100.00
66273;BME280;58450;52.150;4.466;2023-09-08T02:02:42;101645.09;;;20.96;100.00
66273;BME280;58450;52.150;4.466;2023-09-08T02:05:10;101647.69;;;20.91;100.00
66273;BME280;58450;52.150;4.466;2023-09-08T02:07:37;101648.38;;;20.86;100.00
66273;BME280;58450;52.150;4.466;2023-09-08T02:10:05;101645.44;;;20.88;100.00
66273;BME280;58450;52.150;4.466;2023-09-08T02:12:33;101642.09;;;20.86;100.00
66273;BME280;58450;52.150;4.466;2023-09-08T02:15:01;101641.25;;;20.85;100.00
66273;BME280;58450;52.150;4.466;2023-09-08T02:17:31;101636.38;;;20.87;100.00
66273;BME280;58450;52.150;4.466;2023-09-08T02:19:58;101643.97;;;20.85;100.00
66273;BME280;58450;52.150;4.466;2023-09-08T02:22:26;101640.91;;;20.81;100.00
66273;BME280;58450;52.150;4.466;2023-09-08T02:24:54;101639.72;;;20.77;100.00
66273;BME280;58450;52.150;4.466;2023-09-08T02:27:24;101634.25;;;20.77;100.00
66273;BME280;58450;52.150;4.466;2023-09-08T02:29:51;101637.88;;;20.71;100.00
66273;BME280;58450;52.150;4.466;2023-09-08T02:32:19;101628.63;;;20.72;100.00
66273;BME280;58450;52.150;4.466;2023-09-08T02:34:48;101626.13;;;20.71;100.00
66273;BME280;58450;52.150;4.466;2023-09-08T02:37:15;101626.81;;;20.66;100.00
66273;BME280;58450;52.150;4.466;2023-09-08T02:39:45;101630.75;;;20.58;100.00
66273;BME280;58450;52.150;4.466;2023-09-08T02:42:12;101627.03;;;20.52;100.00
66273;BME280;58450;52.150;4.466;2023-09-08T02:44:40;101628.69;;;20.53;100.00
66273;BME280;58450;52.150;4.466;2023-09-08T02:47:07;101634.41;;;20.52;100.00
66273;BME280;58450;52.150;4.466;2023-09-08T02:49:36;101630.47;;;20.48;100.00
66273;BME280;58450;52.150;4.466;2023-09-08T02:52:05;101626.91;;;20.47;100.00
66273;BME280;58450;52.150;4.466;2023-09-08T02:54:32;101630.94;;;20.45;100.00
66273;BME280;58450;52.150;4.466;2023-09-08T02:57:00;101628.78;;;20.35;100.00
66273;BME280;58450;52.150;4.466;2023-09-08T02:59:28;101629.38;;;20.37;100.00
66273;BME280;58450;52.150;4.466;2023-09-08T03:01:56;101626.63;;;20.37;100.00
66273;BME280;58450;52.150;4.466;2023-09-08T03:04:24;101625.81;;;20.36;100.00
66273;BME280;58450;52.150;4.466;2023-09-08T03:06:52;101622.47;;;20.34;100.00
66273;BME280;58450;52.150;4.466;2023-09-08T03:09:21;101622.94;;;20.31;100.00
66273;BME280;58450;52.150;4.466;2023-09-08T03:11:49;101626.88;;;20.23;100.00
66273;BME280;58450;52.150;4.466;2023-09-08T03:14:16;101629.47;;;20.18;100.00
66273;BME280;58450;52.150;4.466;2023-09-08T03:16:44;101627.41;;;20.14;100.00
66273;BME280;58450;52.150;4.466;2023-09-08T03:19:11;101625.53;;;20.14;100.00
66273;BME280;58450;52.150;4.466;2023-09-08T03:21:39;101624.69;;;20.14;100.00
66273;BME280;58450;52.150;4.466;2023-09-08T03:24:06;101616.47;;;20.14;100.00
66273;BME280;58450;52.150;4.466;2023-09-08T03:26:35;101619.34;;;20.19;100.00
66273;BME280;58450;52.150;4.466;2023-09-08T03:29:03;101613.06;;;20.18;100.00
66273;BME280;58450;52.150;4.466;2023-09-08T03:31:31;101608.19;;;20.20;100.00
66273;BME280;58450;52.150;4.466;2023-09-08T03:33:58;101602.94;;;20.19;100.00
66273;BME280;58450;52.150;4.466;2023-09-08T03:36:26;101608.28;;;20.14;100.00
66273;BME280;58450;52.150;4.466;2023-09-08T03:38:54;101605.19;;;20.10;100.00
66273;BME280;58450;52.150;4.466;2023-09-08T03:41:24;101608.16;;;20.08;100.00
66273;BME280;58450;52.150;4.466;2023-09-08T03:43:53;101605.13;;;19.98;100.00
66273;BME280;58450;52.150;4.466;2023-09-08T03:46:21;101600.59;;;19.92;100.00
66273;BME280;58450;52.150;4.466;2023-09-08T03:48:50;101604.00;;;19.87;100.00
66273;BME280;58450;52.150;4.466;2023-09-08T03:51:18;101606.97;;;19.86;100.00
66273;BME280;58450;52.150;4.466;2023-09-08T03:53:46;101607.13;;;19.91;100.00
66273;BME280;58450;52.150;4.466;2023-09-08T03:56:13;101606.91;;;19.92;100.00
66273;BME280;58450;52.150;4.466;2023-09-08T03:58:41;101606.66;;;19.94;100.00
66273;BME280;58450;52.150;4.466;2023-09-08T04:01:10;101604.19;;;19.92;100.00
66273;BME280;58450;52.150;4.466;2023-09-08T04:03:37;101613.00;;;19.88;100.00
66273;BME280;58450;52.150;4.466;2023-09-08T04:06:05;101602.09;;;19.88;100.00
66273;BME280;58450;52.150;4.466;2023-09-08T04:08:32;101615.31;;;19.91;100.00
66273;BME280;58450;52.150;4.466;2023-09-08T04:11:00;101605.53;;;19.83;100.00
66273;BME280;58450;52.150;4.466;2023-09-08T04:13:27;101600.91;;;19.84;100.00
66273;BME280;58450;52.150;4.466;2023-09-08T04:15:55;101604.47;;;19.84;100.00
66273;BME280;58450;52.150;4.466;2023-09-08T04:18:24;101606.84;;;19.81;100.00
66273;BME280;58450;52.150;4.466;2023-09-08T04:20:51;101606.22;;;19.78;100.00
66273;BME280;58450;52.150;4.466;2023-09-08T04:23:19;101607.59;;;19.69;100.00
66273;BME280;58450;52.150;4.466;2023-09-08T04:25:46;101608.06;;;19.66;100.00
66273;BME280;58450;52.150;4.466;2023-09-08T04:28:14;101603.66;;;19.65;100.00
66273;BME280;58450;52.150;4.466;2023-09-08T04:30:41;101611.63;;;19.67;100.00
66273;BME280;58450;52.150;4.466;2023-09-08T04:33:09;101604.63;;;19.71;100.00
66273;BME280;58450;52.150;4.466;2023-09-08T04:35:38;101606.53;;;19.70;100.00
66273;BME280;58450;52.150;4.466;2023-09-08T04:38:05;101612.75;;;19.77;100.00
66273;BME280;58450;52.150;4.466;2023-09-08T04:40:33;101608.50;;;19.82;100.00
66273;BME280;58450;52.150;4.466;2023-09-08T04:43:00;101613.31;;;19.98;100.00
66273;BME280;58450;52.150;4.466;2023-09-08T04:45:28;101623.13;;;20.06;100.00
66273;BME280;58450;52.150;4.466;2023-09-08T04:47:56;101617.78;;;20.11;100.00
66273;BME280;58450;52.150;4.466;2023-09-08T04:50:23;101617.59;;;20.25;100.00
66273;BME280;58450;52.150;4.466;2023-09-08T04:52:52;101618.41;;;20.25;100.00
66273;BME280;58450;52.150;4.466;2023-09-08T04:55:20;101618.19;;;20.27;100.00
66273;BME280;58450;52.150;4.466;2023-09-08T04:57:47;101612.28;;;20.30;100.00
66273;BME280;58450;52.150;4.466;2023-09-08T05:00:16;101616.28;;;20.27;100.00
66273;BME280;58450;52.150;4.466;2023-09-08T05:02:44;101610.34;;;20.30;100.00
66273;BME280;58450;52.150;4.466;2023-09-08T05:05:11;101610.34;;;20.30;100.00
66273;BME280;58450;52.150;4.466;2023-09-08T05:07:39;101615.94;;;20.23;100.00
66273;BME280;58450;52.150;4.466;2023-09-08T05:10:09;101615.56;;;20.20;100.00
66273;BME280;58450;52.150;4.466;2023-09-08T05:12:37;101623.59;;;20.15;100.00
66273;BME280;58450;52.150;4.466;2023-09-08T05:15:05;101622.25;;;20.05;100.00
66273;BME280;58450;52.150;4.466;2023-09-08T05:17:40;101622.66;;;20.09;100.00
66273;BME280;58450;52.150;4.466;2023-09-08T05:20:08;101626.19;;;20.10;100.00
66273;BME280;58450;52.150;4.466;2023-09-08T05:22:36;101623.00;;;20.13;100.00
66273;BME280;58450;52.150;4.466;2023-09-08T05:25:05;101613.88;;;20.19;100.00
66273;BME280;58450;52.150;4.466;2023-09-08T05:27:34;101609.00;;;20.21;100.00
66273;BME280;58450;52.150;4.466;2023-09-08T05:30:02;101617.00;;;20.22;100.00
66273;BME280;58450;52.150;4.466;2023-09-08T05:32:30;101609.41;;;20.25;100.00
66273;BME280;58450;52.150;4.466;2023-09-08T05:34:58;101623.88;;;20.25;100.00
66273;BME280;58450;52.150;4.466;2023-09-08T05:37:26;101615.47;;;20.27;100.00
66273;BME280;58450;52.150;4.466;2023-09-08T05:39:54;101627.94;;;20.34;100.00
66273;BME280;58450;52.150;4.466;2023-09-08T05:42:22;101629.38;;;20.37;100.00
66273;BME280;58450;52.150;4.466;2023-09-08T05:44:51;101629.16;;;20.38;100.00
66273;BME280;58450;52.150;4.466;2023-09-08T05:47:20;101622.75;;;20.45;100.00
66273;BME280;58450;52.150;4.466;2023-09-08T05:49:48;101631.44;;;20.53;100.00
66273;BME280;58450;52.150;4.466;2023-09-08T05:52:15;101639.06;;;20.63;100.00
66273;BME280;58450;52.150;4.466;2023-09-08T05:54:43;101638.94;;;20.70;100.00
66273;BME280;58450;52.150;4.466;2023-09-08T05:57:11;101637.56;;;20.79;100.00
66273;BME280;58450;52.150;4.466;2023-09-08T05:59:38;101637.81;;;20.90;100.00
66273;BME280;58450;52.150;4.466;2023-09-08T06:02:07;101641.13;;;21.04;100.00
66273;BME280;58450;52.150;4.466;2023-09-08T06:04:35;101639.22;;;21.16;100.00
66273;BME280;58450;52.150;4.466;2023-09-08T06:07:02;101639.00;;;21.30;100.00
66273;BME280;58450;52.150;4.466;2023-09-08T06:09:31;101645.28;;;21.42;100.00
66273;BME280;58450;52.150;4.466;2023-09-08T06:11:59;101649.31;;;21.51;100.00
66273;BME280;58450;52.150;4.466;2023-09-08T06:14:27;101651.22;;;21.63;100.00
66273;BME280;58450;52.150;4.466;2023-09-08T06:16:54;101662.84;;;21.70;100.00
66273;BME280;58450;52.150;4.466;2023-09-08T06:19:23;101658.34;;;21.76;100.00
66273;BME280;58450;52.150;4.466;2023-09-08T06:21:51;101655.34;;;21.77;100.00
66273;BME280;58450;52.150;4.466;2023-09-08T06:24:18;101657.47;;;21.75;100.00
66273;BME280;58450;52.150;4.466;2023-09-08T06:26:46;101660.34;;;21.80;100.00
66273;BME280;58450;52.150;4.466;2023-09-08T06:29:15;101646.25;;;21.89;100.00
66273;BME280;58450;52.150;4.466;2023-09-08T06:31:43;101655.66;;;21.93;100.00
66273;BME280;58450;52.150;4.466;2023-09-08T06:34:10;101648.50;;;21.92;100.00
66273;BME280;58450;52.150;4.466;2023-09-08T06:36:39;101652.53;;;22.01;100.00
66273;BME280;58450;52.150;4.466;2023-09-08T06:39:07;101650.13;;;22.05;100.00
66273;BME280;58450;52.150;4.466;2023-09-08T06:41:34;101649.88;;;22.06;100.00
66273;BME280;58450;52.150;4.466;2023-09-08T06:44:02;101652.22;;;22.14;100.00
66273;BME280;58450;52.150;4.466;2023-09-08T06:46:30;101651.25;;;22.21;100.00
66273;BME280;58450;52.150;4.466;2023-09-08T06:48:58;101655.06;;;22.20;100.00
66273;BME280;58450;52.150;4.466;2023-09-08T06:51:26;101659.06;;;22.29;100.00
66273;BME280;58450;52.150;4.466;2023-09-08T06:53:55;101658.91;;;22.36;100.00
66273;BME280;58450;52.150;4.466;2023-09-08T06:56:23;101661.63;;;22.48;100.00
66273;BME280;58450;52.150;4.466;2023-09-08T06:58:51;101664.88;;;22.62;100.00
66273;BME280;58450;52.150;4.466;2023-09-08T07:01:18;101656.81;;;22.72;100.00
66273;BME280;58450;52.150;4.466;2023-09-08T07:03:46;101657.13;;;22.76;100.00
66273;BME280;58450;52.150;4.466;2023-09-08T07:06:14;101656.06;;;22.77;100.00
66273;BME280;58450;52.150;4.466;2023-09-08T07:08:41;101660.66;;;22.71;100.00
66273;BME280;58450;52.150;4.466;2023-09-08T07:11:11;101652.22;;;22.78;100.00
66273;BME280;58450;52.150;4.466;2023-09-08T07:13:39;101656.88;;;22.94;100.00
66273;BME280;58450;52.150;4.466;2023-09-08T07:16:06;101657.84;;;23.22;100.00
66273;BME280;58450;52.150;4.466;2023-09-08T07:18:34;101653.88;;;23.52;100.00
66273;BME280;58450;52.150;4.466;2023-09-08T07:21:02;101657.59;;;23.85;100.00
66273;BME280;58450;52.150;4.466;2023-09-08T07:23:29;101661.69;;;24.32;100.00
66273;BME280;58450;52.150;4.466;2023-09-08T07:25:57;101652.09;;;25.05;100.00
66273;BME280;58450;52.150;4.466;2023-09-08T07:28:26;101654.97;;;25.85;100.00
66273;BME280;58450;52.150;4.466;2023-09-08T07:30:53;101662.00;;;26.80;100.00
66273;BME280;58450;52.150;4.466;2023-09-08T07:33:27;101662.09;;;27.67;100.00
66273;BME280;58450;52.150;4.466;2023-09-08T07:35:55;101664.81;;;28.62;100.00
66273;BME280;58450;52.150;4.466;2023-09-08T07:38:22;101662.72;;;29.37;100.00
66273;BME280;58450;52.150;4.466;2023-09-08T07:40:50;101667.69;;;29.84;97.96
66273;BME280;58450;52.150;4.466;2023-09-08T07:43:17;101670.25;;;30.18;93.40
66273;BME280;58450;52.150;4.466;2023-09-08T07:45:46;101663.63;;;30.52;91.25
66273;BME280;58450;52.150;4.466;2023-09-08T07:48:14;101664.97;;;30.88;88.82
66273;BME280;58450;52.150;4.466;2023-09-08T07:50:42;101668.53;;;31.22;86.73
66273;BME280;58450;52.150;4.466;2023-09-08T07:53:10;101663.56;;;31.61;83.87
66273;BME280;58450;52.150;4.466;2023-09-08T07:55:37;101665.38;;;31.93;81.36
66273;BME280;58450;52.150;4.466;2023-09-08T07:58:05;101664.84;;;32.28;78.11
66273;BME280;58450;52.150;4.466;2023-09-08T08:00:33;101650.88;;;32.65;77.68
66273;BME280;58450;52.150;4.466;2023-09-08T08:03:02;101659.25;;;32.96;75.66
66273;BME280;58450;52.150;4.466;2023-09-08T08:05:29;101658.00;;;33.20;74.17
66273;BME280;58450;52.150;4.466;2023-09-08T08:07:57;101654.34;;;33.42;73.05
66273;BME280;58450;52.150;4.466;2023-09-08T08:10:25;101660.13;;;33.72;71.83
66273;BME280;58450;52.150;4.466;2023-09-08T08:12:52;101667.59;;;33.95;70.18
66273;BME280;58450;52.150;4.466;2023-09-08T08:15:20;101670.50;;;33.81;68.42
66273;BME280;58450;52.150;4.466;2023-09-08T08:17:49;101664.56;;;33.65;69.02
66273;BME280;58450;52.150;4.466;2023-09-08T08:20:18;101663.47;;;33.92;68.60
66273;BME280;58450;52.150;4.466;2023-09-08T08:22:46;101666.75;;;33.94;67.86
66273;BME280;58450;52.150;4.466;2023-09-08T08:25:13;101671.88;;;34.27;67.87
66273;BME280;58450;52.150;4.466;2023-09-08T08:27:41;101667.25;;;34.31;64.85
66273;BME280;58450;52.150;4.466;2023-09-08T08:30:09;101666.44;;;34.40;65.60
66273;BME280;58450;52.150;4.466;2023-09-08T08:32:37;101676.44;;;34.14;64.44
66273;BME280;58450;52.150;4.466;2023-09-08T08:35:05;101672.38;;;32.73;67.82
66273;BME280;58450;52.150;4.466;2023-09-08T08:37:34;101677.66;;;33.06;69.18
66273;BME280;58450;52.150;4.466;2023-09-08T08:40:02;101677.75;;;33.33;68.57
66273;BME280;58450;52.150;4.466;2023-09-08T08:42:31;101683.63;;;33.63;68.80
66273;BME280;58450;52.150;4.466;2023-09-08T08:44:59;101684.75;;;33.62;69.10
66273;BME280;58450;52.150;4.466;2023-09-08T08:47:29;101682.38;;;34.04;67.74
66273;BME280;58450;52.150;4.466;2023-09-08T08:49:57;101678.91;;;34.42;67.04
66273;BME280;58450;52.150;4.466;2023-09-08T08:52:26;101675.88;;;34.83;66.18
66273;BME280;58450;52.150;4.466;2023-09-08T08:54:56;101683.28;;;35.26;64.21
66273;BME280;58450;52.150;4.466;2023-09-08T08:57:23;101675.16;;;35.03;62.70
66273;BME280;58450;52.150;4.466;2023-09-08T08:59:53;101675.97;;;34.95;63.57
66273;BME280;58450;52.150;4.466;2023-09-08T09:02:21;101676.13;;;35.08;64.02
66273;BME280;58450;52.150;4.466;2023-09-08T09:04:52;101671.44;;;35.59;63.45
66273;BME280;58450;52.150;4.466;2023-09-08T09:07:21;101673.94;;;36.03;61.80
66273;BME280;58450;52.150;4.466;2023-09-08T09:09:49;101684.22;;;35.99;59.13
66273;BME280;58450;52.150;4.466;2023-09-08T09:12:19;101674.13;;;35.77;59.91
66273;BME280;58450;52.150;4.466;2023-09-08T09:14:48;101679.31;;;35.87;58.38
66273;BME280;58450;52.150;4.466;2023-09-08T09:17:20;101677.81;;;35.69;58.94
66273;BME280;58450;52.150;4.466;2023-09-08T09:19:48;101678.16;;;35.88;59.91
66273;BME280;58450;52.150;4.466;2023-09-08T09:22:20;101679.09;;;36.01;58.35
66273;BME280;58450;52.150;4.466;2023-09-08T09:24:48;101674.56;;;36.64;59.07
66273;BME280;58450;52.150;4.466;2023-09-08T09:27:15;101682.94;;;36.51;57.01
66273;BME280;58450;52.150;4.466;2023-09-08T09:29:46;101672.59;;;36.77;56.79
66273;BME280;58450;52.150;4.466;2023-09-08T09:32:15;101679.00;;;36.90;56.02
66273;BME280;58450;52.150;4.466;2023-09-08T09:34:47;101670.91;;;36.63;55.47
66273;BME280;58450;52.150;4.466;2023-09-08T09:37:16;101673.06;;;36.91;57.04
66273;BME280;58450;52.150;4.466;2023-09-08T09:39:48;101666.69;;;37.53;55.04
66273;BME280;58450;52.150;4.466;2023-09-08T09:42:17;101669.41;;;37.78;54.89
66273;BME280;58450;52.150;4.466;2023-09-08T09:44:48;101672.91;;;37.99;54.30
66273;BME280;58450;52.150;4.466;2023-09-08T09:47:17;101663.94;;;38.38;53.72
66273;BME280;58450;52.150;4.466;2023-09-08T09:49:47;101671.88;;;38.49;50.98
66273;BME280;58450;52.150;4.466;2023-09-08T09:52:21;101667.44;;;37.78;50.50
66273;BME280;58450;52.150;4.466;2023-09-08T09:54:52;101671.44;;;37.40;51.95
66273;BME280;58450;52.150;4.466;2023-09-08T09:57:22;101663.16;;;37.56;53.14
66273;BME280;58450;52.150;4.466;2023-09-08T09:59:53;101659.56;;;37.96;53.33
66273;BME280;58450;52.150;4.466;2023-09-08T10:02:24;101659.63;;;38.41;52.75
66273;BME280;58450;52.150;4.466;2023-09-08T10:04:53;101656.75;;;38.85;52.10
66273;BME280;58450;52.150;4.466;2023-09-08T10:07:22;101662.66;;;39.12;50.56
66273;BME280;58450;52.150;4.466;2023-09-08T10:09:51;101658.47;;;38.01;49.54
66273;BME280;58450;52.150;4.466;2023-09-08T10:12:18;101663.50;;;37.67;50.76
66273;BME280;58450;52.150;4.466;2023-09-08T10:14:49;101659.91;;;37.54;53.33
66273;BME280;58450;52.150;4.466;2023-09-08T10:17:25;101670.72;;;37.80;52.15
66273;BME280;58450;52.150;4.466;2023-09-08T10:20:00;101666.06;;;38.41;52.62
66273;BME280;58450;52.150;4.466;2023-09-08T10:22:36;101663.56;;;39.16;51.44
66273;BME280;58450;52.150;4.466;2023-09-08T10:25:06;101660.66;;;39.29;51.12
66273;BME280;58450;52.150;4.466;2023-09-08T10:27:36;101658.56;;;39.26;49.19
66273;BME280;58450;52.150;4.466;2023-09-08T10:30:07;101662.72;;;38.52;50.26
66273;BME280;58450;52.150;4.466;2023-09-08T10:32:36;101665.88;;;38.95;50.82
66273;BME280;58450;52.150;4.466;2023-09-08T10:35:05;101668.66;;;39.11;50.82
66273;BME280;58450;52.150;4.466;2023-09-08T10:37:33;101664.28;;;39.29;49.08
66273;BME280;58450;52.150;4.466;2023-09-08T10:40:22;101674.22;;;39.59;48.97
66273;BME280;58450;52.150;4.466;2023-09-08T10:43:06;101669.44;;;39.43;48.20
66273;BME280;58450;52.150;4.466;2023-09-08T10:45:36;101664.28;;;38.65;47.32
66273;BME280;58450;52.150;4.466;2023-09-08T10:48:06;101661.28;;;38.58;48.96
66273;BME280;58450;52.150;4.466;2023-09-08T10:50:35;101665.38;;;38.77;49.00
66273;BME280;58450;52.150;4.466;2023-09-08T10:53:09;101670.19;;;38.76;47.25
66273;BME280;58450;52.150;4.466;2023-09-08T10:55:40;101655.78;;;38.94;47.75
66273;BME280;58450;52.150;4.466;2023-09-08T10:58:20;101667.16;;;37.05;49.95
66273;BME280;58450;52.150;4.466;2023-09-08T11:00:59;101663.59;;;37.58;49.72
66273;BME280;58450;52.150;4.466;2023-09-08T11:03:29;101664.84;;;38.26;49.92
66273;BME280;58450;52.150;4.466;2023-09-08T11:06:12;101667.28;;;39.05;49.42
66273;BME280;58450;52.150;4.466;2023-09-08T11:08:44;101661.28;;;39.38;47.65
66273;BME280;58450;52.150;4.466;2023-09-08T11:11:13;101667.63;;;37.20;48.92
66273;BME280;58450;52.150;4.466;2023-09-08T11:13:42;101660.91;;;38.15;49.01
66273;BME280;58450;52.150;4.466;2023-09-08T11:16:13;101660.06;;;38.87;48.14
66273;BME280;58450;52.150;4.466;2023-09-08T11:18:41;101660.75;;;38.84;48.04
66273;BME280;58450;52.150;4.466;2023-09-08T11:21:10;101666.13;;;38.90;47.73
66273;BME280;58450;52.150;4.466;2023-09-08T11:23:39;101661.50;;;38.37;48.39
66273;BME280;58450;52.150;4.466;2023-09-08T11:26:06;101663.44;;;37.92;49.04
66273;BME280;58450;52.150;4.466;2023-09-08T11:28:35;101662.63;;;38.20;49.05
66273;BME280;58450;52.150;4.466;2023-09-08T11:31:04;101657.03;;;38.64;49.15
66273;BME280;58450;52.150;4.466;2023-09-08T11:33:35;101661.13;;;39.15;47.17
66273;BME280;58450;52.150;4.466;2023-09-08T11:36:11;101666.25;;;39.81;47.93
66273;BME280;58450;52.150;4.466;2023-09-08T11:38:43;101665.88;;;39.46;45.67
66273;BME280;58450;52.150;4.466;2023-09-08T11:41:11;101660.22;;;38.34;47.12
66273;BME280;58450;52.150;4.466;2023-09-08T11:43:39;101663.06;;;37.03;48.02
66273;BME280;58450;52.150;4.466;2023-09-08T11:46:07;101657.25;;;37.74;47.46
66273;BME280;58450;52.150;4.466;2023-09-08T11:48:38;101656.34;;;38.39;46.30
66273;BME280;58450;52.150;4.466;2023-09-08T11:51:06;101654.03;;;38.57;46.75
66273;BME280;58450;52.150;4.466;2023-09-08T11:53:35;101649.28;;;39.41;47.22
66273;BME280;58450;52.150;4.466;2023-09-08T11:56:04;101659.44;;;40.01;45.93
66273;BME280;58450;52.150;4.466;2023-09-08T11:58:33;101652.16;;;39.09;45.03
66273;BME280;58450;52.150;4.466;2023-09-08T12:01:01;101654.78;;;39.54;44.84
66273;BME280;58450;52.150;4.466;2023-09-08T12:03:30;101653.41;;;40.03;45.77
66273;BME280;58450;52.150;4.466;2023-09-08T12:05:58;101655.88;;;40.24;43.57
66273;BME280;58450;52.150;4.466;2023-09-08T12:08:28;101648.44;;;39.77;41.76
66273;BME280;58450;52.150;4.466;2023-09-08T12:10:56;101652.22;;;39.29;43.25
66273;BME280;58450;52.150;4.466;2023-09-08T12:13:23;101648.00;;;37.85;44.24
66273;BME280;58450;52.150;4.466;2023-09-08T12:15:51;101640.13;;;38.20;43.20
66273;BME280;58450;52.150;4.466;2023-09-08T12:18:18;101646.78;;;38.72;45.20
66273;BME280;58450;52.150;4.466;2023-09-08T12:20:46;101642.25;;;38.67;45.29
66273;BME280;58450;52.150;4.466;2023-09-08T12:23:32;101641.38;;;36.78;49.51
66273;BME280;58450;52.150;4.466;2023-09-08T12:25:59;101651.28;;;38.16;48.75
66273;BME280;58450;52.150;4.466;2023-09-08T12:28:30;101639.28;;;38.03;47.20
66273;BME280;58450;52.150;4.466;2023-09-08T12:30:59;101644.66;;;36.93;48.69
66273;BME280;58450;52.150;4.466;2023-09-08T12:33:27;101638.81;;;36.39;50.97
66273;BME280;58450;52.150;4.466;2023-09-08T12:35:54;101639.94;;;36.26;51.92
66273;BME280;58450;52.150;4.466;2023-09-08T12:38:22;101631.34;;;36.65;52.69
66273;BME280;58450;52.150;4.466;2023-09-08T12:40:51;101635.91;;;37.32;52.36
66273;BME280;58450;52.150;4.466;2023-09-08T12:43:18;101629.34;;;36.90;52.91
66273;BME280;58450;52.150;4.466;2023-09-08T12:45:46;101638.72;;;36.94;53.71
66273;BME280;58450;52.150;4.466;2023-09-08T12:48:13;101635.91;;;37.32;52.13
66273;BME280;58450;52.150;4.466;2023-09-08T12:50:41;101630.75;;;37.34;51.01